createdAt,value
2023-02-07T00:02:30.492Z,84.65
2023-02-07T00:07:22.396Z,84.53
2023-02-07T00:12:17.672Z,84.59
2023-02-07T00:17:16.056Z,84.62
2023-02-07T00:22:06.342Z,84.54
2023-02-07T00:26:55.898Z,83.87
2023-02-07T00:31:46.578Z,84.24
2023-02-07T00:36:42.539Z,85.30
2023-02-07T00:41:35.132Z,85.58
2023-02-07T00:46:26.319Z,85.83
2023-02-07T00:51:26.077Z,85.95
2023-02-07T00:56:19.211Z,86.05
2023-02-07T01:01:20.574Z,85.91
2023-02-07T01:06:12.791Z,85.31
2023-02-07T01:11:05.531Z,85.27
2023-02-07T01:15:57.821Z,84.67
2023-02-07T01:20:49.447Z,84.55
2023-02-07T01:25:45.070Z,84.65
2023-02-07T01:30:36.561Z,84.53
2023-02-07T01:35:38.860Z,85.00
2023-02-07T01:40:32.139Z,84.23
2023-02-07T01:45:28.049Z,84.44
2023-02-07T01:50:22.666Z,82.00
2023-02-07T01:55:24.760Z,81.54
2023-02-07T02:00:20.577Z,82.09
2023-02-07T02:05:14.083Z,81.99
2023-02-07T02:10:08.596Z,82.43
2023-02-07T02:15:20.300Z,82.91
2023-02-07T02:20:50.944Z,82.47
2023-02-07T02:26:26.815Z,82.86
2023-02-07T02:31:52.000Z,82.73
2023-02-07T02:36:58.120Z,82.70
2023-02-07T02:42:01.096Z,82.32
2023-02-07T02:47:01.424Z,82.44
2023-02-07T02:52:02.646Z,82.50
2023-02-07T02:57:07.664Z,82.52
2023-02-07T03:02:23.865Z,82.60
2023-02-07T03:07:36.302Z,82.73
2023-02-07T03:12:35.307Z,82.39
2023-02-07T03:17:32.949Z,82.86
2023-02-07T03:22:35.104Z,83.16
2023-02-07T03:27:29.283Z,93.47
2023-02-07T03:32:21.793Z,96.60
2023-02-07T03:37:19.221Z,98.24
2023-02-07T03:42:25.361Z,98.94
2023-02-07T03:47:31.385Z,99.28
2023-02-07T03:52:25.686Z,99.01
2023-02-07T03:57:24.320Z,98.82
2023-02-07T04:02:16.688Z,99.27
2023-02-07T04:07:06.530Z,99.24
2023-02-07T04:11:59.673Z,99.14
2023-02-07T04:17:05.768Z,99.12
2023-02-07T04:21:57.237Z,99.43
2023-02-07T04:26:49.356Z,99.14
2023-02-07T04:31:49.982Z,99.16
2023-02-07T04:36:44.894Z,99.33
2023-02-07T04:41:39.520Z,99.59
2023-02-07T04:46:30.113Z,99.92
2023-02-07T04:51:23.935Z,100.00
2023-02-07T04:56:17.207Z,100.00
2023-02-07T05:01:16.950Z,100.00
2023-02-07T05:06:09.654Z,100.00
2023-02-07T05:11:05.533Z,100.00
2023-02-07T05:16:16.012Z,100.00
2023-02-07T05:21:09.720Z,100.00
2023-02-07T05:26:02.048Z,100.00
2023-02-07T05:30:56.715Z,100.00
2023-02-07T05:35:51.276Z,100.00
2023-02-07T05:40:48.158Z,100.00
2023-02-07T05:45:43.689Z,100.00
2023-02-07T05:50:51.293Z,100.00
2023-02-07T05:55:47.739Z,100.00
2023-02-07T06:00:40.592Z,100.00
2023-02-07T06:05:36.496Z,100.00
2023-02-07T06:10:34.123Z,100.00
2023-02-07T06:15:36.643Z,100.00
2023-02-07T06:20:34.969Z,100.00
2023-02-07T06:25:40.312Z,100.00
2023-02-07T06:30:34.286Z,100.00
2023-02-07T06:35:25.066Z,100.00
2023-02-07T06:40:20.259Z,100.00
2023-02-07T06:45:14.808Z,100.00
2023-02-07T06:50:11.253Z,100.00
2023-02-07T06:55:02.750Z,100.00
2023-02-07T07:00:01.335Z,100.00
2023-02-07T07:04:59.954Z,100.00
2023-02-07T07:09:56.236Z,100.00
2023-02-07T07:14:48.256Z,100.00
2023-02-07T07:19:38.452Z,100.00
2023-02-07T07:24:35.348Z,100.00
2023-02-07T07:29:33.804Z,100.00
2023-02-07T07:34:28.607Z,100.00
2023-02-07T07:39:26.836Z,100.00
2023-02-07T07:44:23.272Z,100.00
2023-02-07T07:49:31.579Z,100.00
2023-02-07T07:54:21.502Z,100.00
2023-02-07T07:59:20.036Z,100.00
2023-02-07T08:04:23.223Z,100.00
2023-02-07T08:09:15.335Z,100.00
2023-02-07T08:14:11.134Z,100.00
2023-02-07T08:19:06.985Z,100.00
2023-02-07T08:24:09.546Z,100.00
2023-02-07T08:29:02.054Z,100.00
2023-02-07T08:33:52.145Z,100.00
2023-02-07T08:38:42.068Z,100.00
2023-02-07T08:43:35.805Z,100.00
2023-02-07T08:48:28.204Z,100.00
2023-02-07T08:53:19.203Z,100.00
2023-02-07T08:58:11.271Z,99.38
2023-02-07T09:03:12.368Z,98.78
2023-02-07T09:08:08.958Z,98.37
2023-02-07T09:13:01.447Z,97.71
2023-02-07T09:17:57.531Z,98.23
2023-02-07T09:23:08.097Z,98.10
2023-02-07T09:28:09.626Z,97.84
2023-02-07T09:33:18.690Z,98.29
2023-02-07T09:38:29.127Z,97.94
2023-02-07T09:43:36.231Z,97.05
2023-02-07T09:48:37.955Z,96.70
2023-02-07T09:53:49.317Z,96.81
2023-02-07T09:58:48.216Z,96.79
2023-02-07T10:03:47.143Z,93.05
2023-02-07T10:08:42.616Z,92.51
2023-02-07T10:13:50.836Z,92.44
2023-02-07T10:18:50.530Z,91.38
2023-02-07T10:24:00.495Z,91.10
2023-02-07T10:29:34.520Z,90.81
2023-02-07T10:34:37.011Z,90.14
2023-02-07T10:39:36.915Z,88.90
2023-02-07T10:44:36.886Z,88.55
2023-02-07T10:49:36.320Z,88.18
2023-02-07T10:54:39.844Z,88.71
2023-02-07T10:59:46.140Z,88.48
2023-02-07T11:04:47.135Z,87.91
2023-02-07T11:09:49.148Z,87.75
2023-02-07T11:14:45.640Z,86.69
2023-02-07T11:19:51.242Z,86.08
2023-02-07T11:24:45.046Z,84.57
2023-02-07T11:29:46.962Z,83.80
2023-02-07T11:34:51.623Z,83.63
2023-02-07T11:39:48.076Z,74.86
2023-02-07T11:44:59.513Z,76.77
2023-02-07T11:49:53.275Z,79.46
2023-02-07T11:54:46.052Z,78.53
2023-02-07T11:59:38.224Z,79.42
2023-02-07T12:04:31.721Z,77.48
2023-02-07T12:09:33.124Z,72.89
2023-02-07T12:14:34.801Z,72.93
2023-02-07T12:19:31.661Z,73.62
2023-02-07T12:24:33.963Z,73.44
2023-02-07T12:29:32.269Z,73.86
2023-02-07T12:34:26.136Z,75.27
2023-02-07T12:39:22.612Z,76.02
2023-02-07T12:44:22.461Z,73.32
2023-02-07T12:49:32.033Z,73.50
2023-02-07T12:54:36.055Z,73.77
2023-02-07T12:59:35.552Z,74.38
2023-02-07T13:04:45.430Z,73.96
2023-02-07T13:09:49.131Z,75.89
2023-02-07T13:14:49.054Z,77.63
2023-02-07T13:19:45.803Z,76.82
2023-02-07T13:24:36.957Z,75.52
2023-02-07T13:29:28.227Z,75.30
2023-02-07T13:34:23.871Z,75.25
2023-02-07T13:39:23.573Z,73.51
2023-02-07T13:44:22.580Z,74.71
2023-02-07T13:49:18.142Z,72.41
2023-02-07T13:54:31.710Z,71.93
2023-02-07T13:59:45.718Z,71.86
2023-02-07T14:04:50.410Z,74.41
2023-02-07T14:09:53.256Z,70.61
2023-02-07T14:14:51.070Z,72.84
2023-02-07T14:19:56.243Z,73.01
2023-02-07T14:25:19.685Z,70.08
2023-02-07T14:30:17.449Z,70.99
2023-02-07T14:35:09.160Z,71.37
2023-02-07T14:40:13.020Z,71.62
2023-02-07T14:45:07.363Z,71.45
2023-02-07T14:50:14.337Z,70.40
2023-02-07T14:55:18.645Z,66.33
2023-02-07T15:00:29.408Z,67.92
2023-02-07T15:05:25.259Z,70.36
2023-02-07T15:10:27.524Z,69.26
2023-02-07T15:15:25.587Z,66.30
2023-02-07T15:20:23.592Z,69.43
2023-02-07T15:25:19.004Z,69.02
2023-02-07T15:30:22.546Z,71.68
2023-02-07T15:35:17.608Z,70.37
2023-02-07T15:40:09.643Z,70.41
2023-02-07T15:45:10.634Z,70.34
2023-02-07T15:50:13.767Z,71.26
2023-02-07T15:55:12.828Z,70.41
2023-02-07T16:00:06.702Z,70.80
2023-02-07T16:05:16.252Z,71.86
2023-02-07T16:10:23.386Z,71.15
2023-02-07T16:15:30.012Z,72.58
2023-02-07T16:20:21.870Z,73.44
2023-02-07T16:25:17.556Z,73.96
2023-02-07T16:30:18.946Z,73.84
2023-02-07T16:35:19.403Z,72.54
2023-02-07T16:40:12.267Z,74.00
2023-02-07T16:45:05.764Z,74.15
2023-02-07T16:50:07.868Z,74.09
2023-02-07T16:55:01.420Z,73.62
2023-02-07T16:59:51.415Z,73.79
2023-02-07T17:04:40.958Z,73.29
2023-02-07T17:09:40.251Z,72.94
2023-02-07T17:14:32.964Z,71.98
2023-02-07T17:19:34.203Z,72.13
2023-02-07T17:24:27.198Z,73.79
2023-02-07T17:29:34.955Z,74.21
2023-02-07T17:34:38.473Z,74.04
2023-02-07T17:39:34.735Z,74.79
2023-02-07T17:44:29.022Z,75.31
2023-02-07T17:49:27.438Z,75.74
2023-02-07T17:54:18.175Z,76.49
2023-02-07T17:59:16.606Z,75.86
2023-02-07T18:04:18.673Z,76.39
2023-02-07T18:09:19.362Z,76.73
2023-02-07T18:14:17.594Z,76.99
2023-02-07T18:19:18.388Z,77.38
2023-02-07T18:24:14.220Z,77.40
2023-02-07T18:29:05.529Z,77.66
2023-02-07T18:34:01.307Z,77.40
2023-02-07T18:38:57.402Z,77.65
2023-02-07T18:43:49.887Z,78.28
2023-02-07T18:48:41.443Z,78.53
2023-02-07T18:53:32.249Z,79.23
2023-02-07T18:58:23.604Z,79.49
2023-02-07T19:03:18.590Z,79.02
2023-02-07T19:08:25.468Z,78.85
2023-02-07T19:13:21.154Z,78.59
2023-02-07T19:18:15.398Z,79.37
2023-02-07T19:23:12.044Z,79.67
2023-02-07T19:28:04.756Z,80.04
2023-02-07T19:33:11.815Z,80.10
2023-02-07T19:38:10.107Z,80.15
2023-02-07T19:43:10.337Z,80.34
2023-02-07T19:48:19.496Z,80.02
2023-02-07T19:53:10.106Z,79.82
2023-02-07T19:58:00.556Z,78.36
2023-02-07T20:02:57.122Z,79.18
2023-02-07T20:08:00.421Z,79.06
2023-02-07T20:12:51.767Z,78.99
2023-02-07T20:17:44.069Z,79.30
2023-02-07T20:22:43.506Z,79.14
2023-02-07T20:27:38.482Z,79.55
2023-02-07T20:32:32.203Z,79.81
2023-02-07T20:37:24.831Z,79.73
2023-02-07T20:42:17.034Z,79.84
2023-02-07T20:47:09.657Z,79.66
2023-02-07T20:52:03.508Z,79.88
2023-02-07T20:57:00.655Z,80.31
2023-02-07T21:01:53.687Z,80.69
2023-02-07T21:06:49.426Z,80.83
2023-02-07T21:11:43.461Z,81.27
2023-02-07T21:16:35.454Z,81.39
2023-02-07T21:21:32.985Z,81.63
2023-02-07T21:26:23.772Z,81.58
2023-02-07T21:31:18.678Z,81.70
2023-02-07T21:36:14.824Z,81.60
2023-02-07T21:41:14.114Z,82.14
2023-02-07T21:46:11.526Z,82.25
2023-02-07T21:51:07.777Z,82.14
2023-02-07T21:56:00.862Z,82.38
2023-02-07T22:00:59.134Z,82.43
2023-02-07T22:05:58.028Z,82.33
2023-02-07T22:10:47.524Z,82.49
2023-02-07T22:15:37.368Z,82.37
2023-02-07T22:20:30.310Z,82.61
2023-02-07T22:25:25.051Z,82.82
2023-02-07T22:30:24.292Z,82.87
2023-02-07T22:35:17.769Z,83.21
2023-02-07T22:40:12.502Z,83.05
2023-02-07T22:45:12.240Z,83.03
2023-02-07T22:50:06.759Z,83.20
2023-02-07T22:55:02.137Z,83.15
2023-02-07T23:00:01.270Z,83.32
2023-02-07T23:04:53.661Z,83.29
2023-02-07T23:09:52.096Z,83.69
2023-02-07T23:14:43.834Z,84.02
2023-02-07T23:19:38.479Z,83.82
2023-02-07T23:24:29.320Z,83.66
2023-02-07T23:29:28.186Z,83.99
2023-02-07T23:34:26.679Z,83.91
2023-02-07T23:39:22.187Z,83.94
2023-02-07T23:44:11.878Z,83.84
2023-02-07T23:49:04.594Z,84.13
2023-02-07T23:53:58.012Z,84.24
2023-02-07T23:58:55.241Z,84.24
